Flight Track Log - Related Links

Times and Time Zones

All times are in EDT time to prevent confusion due to time zone crossing. See the QXE2294 flight status page for this flight to view local times or setup timezone preferences in your user account.


Time Position Orientation Groundspeed Altitude Reporting Facility
EDT Latitude Longitude Course Direction KTS MPH feet Rate Location/Type
Sun 09:19:00 AM 44.6164 -121.2750 346° North  Level Estimated
Sun 09:20:00 AM 44.6768 -121.2960 346° North  Level Estimated
Sun 09:21:00 AM 44.7371 -121.3170 346° North  Level Estimated
Sun 09:22:00 AM 44.7975 -121.3381 346° North  Level Estimated
Sun 09:23:00 AM 44.8579 -121.3592 346° North  Level Estimated
Sun 09:24:00 AM 44.9183 -121.3803 346° North  Level Estimated
Sun 09:25:00 AM 44.9786 -121.4015 346° North  Level Estimated
Sun 09:26:00 AM 45.0390 -121.4228 346° North  Level Estimated
Sun 09:27:00 AM 45.0993 -121.4441 346° North  Level Estimated
Sun 09:28:00 AM 45.1597 -121.4654 346° North  Level Estimated
Sun 09:29:00 AM 45.2200 -121.4868 346° North  Level Estimated
Sun 09:30:00 AM 45.2803 -121.5082 346° North  Level Estimated
Sun 09:31:00 AM 45.3407 -121.5297 346° North  Level Estimated
Sun 09:32:00 AM 45.4010 -121.5512 346° North  Level Estimated
Sun 09:33:00 AM 45.4613 -121.5728 346° North  Level Estimated
Sun 09:34:00 AM 45.5216 -121.5944 346° North  Level Estimated
Sun 09:35:00 AM 45.5820 -121.6161 346° North  Level Estimated
Sun 09:36:00 AM 45.6423 -121.6378 346° North  Level Estimated
Sun 09:37:00 AM 45.7026 -121.6596 346° North  Level Estimated
Sun 09:38:00 AM 45.7629 -121.6814 346° North  Level Estimated
Sun 09:39:00 AM 45.8232 -121.7032 346° North  Level Estimated
Sun 09:40:00 AM 45.8835 -121.7251 346° North  Level Estimated
Sun 09:41:00 AM 45.9438 -121.7470 346° North  Level Estimated
Sun 09:42:00 AM 46.0041 -121.7690 346° North  Level Estimated
Sun 09:43:00 AM 46.0644 -121.7911 346° North  Level Estimated
Sun 09:44:00 AM 46.1246 -121.8132 346° North  Level Estimated
Sun 09:45:00 AM 46.1849 -121.8353 346° North  Level Estimated
Sun 09:46:00 AM 46.2452 -121.8575 346° North  Level Estimated
Sun 09:47:00 AM 46.3055 -121.8797 346° North  Level Estimated
Sun 09:48:00 AM 46.3657 -121.9020 346° North  Level Estimated
Sun 09:49:00 AM 46.4260 -121.9243 346° North  Level Estimated
Sun 09:50:00 AM 46.4862 -121.9467 346° North  Level Estimated
Sun 09:51:00 AM 46.5465 -121.9691 346° North  Level Estimated
Sun 09:52:00 AM 46.6067 -121.9916 346° North  Level Estimated
Sun 09:53:00 AM 46.6670 -122.0141 346° North  Level Estimated
Sun 09:54:00 AM 46.7272 -122.0367 346° North  Level Estimated
Sun 09:55:00 AM 46.7874 -122.0593 346° North  Level Estimated
Sun 09:56:00 AM 46.8477 -122.0820 346° North  Level Estimated
Sun 09:57:00 AM 46.9079 -122.1048 346° North  Level Estimated
Sun 09:58:00 AM 46.9681 -122.1275 346° North  Level Estimated
Sun 09:59:00 AM 47.0283 -122.1504 346° North  Level Estimated
Sun 10:00:00 AM 47.0885 -122.1733 345° North  Level Estimated
Sun 10:01:00 AM 47.1487 -122.1962 345° North  Level Estimated
Sun 10:02:00 AM 47.2089 -122.2192 345° North  Level Estimated
Sun 10:03:00 AM 47.2691 -122.2422 345° North  Level Estimated
Sun 10:04:00 AM 47.3293 -122.2654 345° North  Level Estimated
Sun 10:05:00 AM 47.3895 -122.2885 345° North  Level Estimated
Sun 10:06:00 AM 47.4497 -122.3117 345° North  Level Estimated
Sun 10:07:00 AM 47.4499 -122.3118 346° North  Level Estimated
Sun 10:08:00 AM 47.4499 -122.3118 126° Southeast  Level Estimated
Sun 10:09:00 AM 47.4499 -122.3118 126° Southeast  Level Estimated
Sun 10:10:00 AM 47.4499 -122.3118 126° Southeast  Level Estimated
Sun 10:11:00 AM 47.4499 -122.3118 126° Southeast  Level Estimated
Sun 10:12:00 AM 47.4499 -122.3118 126° Southeast  Level Estimated
Sun 10:13:00 AM 47.4499 -122.3118 126° Southeast  Level Estimated
Sun 10:14:00 AM 47.4499 -122.3118 126° Southeast  Level Estimated
Sun 10:15:00 AM 47.4499 -122.3118 126° Southeast  Level Estimated
Sun 10:16:00 AM 47.4499 -122.3118 126° Southeast  Level Estimated
Sun 10:17:00 AM 47.4499 -122.3118 126° Southeast  Level Estimated
Sun 10:18:00 AM 47.4499 -122.3118 126° Southeast  Level Estimated
Sun 10:19:00 AM 47.4499 -122.3118 126° Southeast  Level Estimated
Sun 10:20:00 AM 47.4499 -122.3118 126° Southeast  Level Estimated
Sun 10:21:00 AM 47.4499 -122.3118 126° Southeast  Level Estimated
Sun 10:22:00 AM 47.4499 -122.3118 126° Southeast  Level Estimated

Login

Don't have an account? Register now (free) for customized features, flight alerts, and more!